Terminal Aerodrome Forecast
Issued by NWS

Home | Current Version | Previous Version | Text Only | Print | Product List | Glossary On
Versions: 1 2 3 4 5 6 7 8 9 10 11 12 13 14 15 16 17 18 19 20 21 22 23
110
FTUS41 KAKQ 311533 AAB
TAFPHF
TAF AMD
KPHF 311533Z 3116/0112 02005KT P6SM BKN020 OVC040
     FM311700 08007KT P6SM VCSH BKN040 BKN120
     FM010300 08003KT 5SM BR BKN010 BKN120=

USA.gov is the U.S. government's official web portal to all federal, state and local government web resources and services.